Time;durP1;ratioP1;P1;durP2;ratioP2;P2;SDS_P1;SDS_P2;PMS_P1;PMS_P2;Temp;Humidity;BMP_temperature;BMP_pressure;BME280_temperature;BME280_humidity;BME280_pressure;Samples;Min_cycle;Max_cycle;Signal;HPM_P1;HPM_P2
2020/12/23 00:01:10;;;;;;;33.47;19.60;;;-1.10;76.40;;;;;;5056204;28;20022;-76
2020/12/23 00:03:36;;;;;;;37.08;20.65;;;-1.10;76.70;;;;;;5055898;28;20036;-76
2020/12/23 00:06:02;;;;;;;46.80;25.70;;;-1.10;76.70;;;;;;5054759;28;20033;-76
2020/12/23 00:08:28;;;;;;;41.08;21.60;;;-1.10;76.20;;;;;;5037666;28;20057;-77
2020/12/23 00:10:53;;;;;;;40.88;22.52;;;-1.10;76.50;;;;;;5036278;28;20463;-76
2020/12/23 00:13:19;;;;;;;40.70;22.30;;;-1.10;76.40;;;;;;5035924;28;20041;-76
2020/12/23 00:15:45;;;;;;;37.85;22.17;;;-1.10;76.70;;;;;;5035884;28;20451;-76
2020/12/23 00:18:11;;;;;;;34.55;19.50;;;-1.00;76.40;;;;;;5035671;28;20023;-76
2020/12/23 00:20:36;;;;;;;34.35;19.60;;;-1.00;76.40;;;;;;5035947;28;20025;-76
2020/12/23 00:23:02;;;;;;;34.90;19.42;;;-1.00;76.40;;;;;;5035594;28;20119;-76
2020/12/23 00:25:28;;;;;;;36.00;19.30;;;-1.00;76.40;;;;;;5036855;28;20092;-76
2020/12/23 00:27:54;;;;;;;30.65;18.33;;;-1.00;76.70;;;;;;5055979;28;20114;-76
2020/12/23 00:30:20;;;;;;;35.83;19.08;;;-1.00;76.60;;;;;;5055565;28;20044;-77
2020/12/23 00:32:46;;;;;;;34.53;19.55;;;-1.00;76.20;;;;;;5055356;28;20024;-77
2020/12/23 00:35:12;;;;;;;66.35;29.13;;;-1.00;75.70;;;;;;5055644;28;20094;-77
2020/12/23 00:37:37;;;;;;;73.30;32.35;;;-1.00;74.90;;;;;;5055551;28;20029;-77
2020/12/23 00:40:04;;;;;;;89.82;38.70;;;-1.10;75.50;;;;;;5055538;28;20101;-76
2020/12/23 00:42:30;;;;;;;90.18;37.95;;;-1.10;75.60;;;;;;5055403;28;20028;-76
2020/12/23 00:44:58;;;;;;;67.38;32.58;;;-1.20;75.70;;;;;;5054501;28;20025;-76
2020/12/23 00:47:26;;;;;;;73.70;31.65;;;-1.20;75.60;;;;;;5055004;28;20017;-77
2020/12/23 00:49:52;;;;;;;65.95;30.83;;;-1.10;75.90;;;;;;5054953;28;20017;-76
2020/12/23 00:52:18;;;;;;;44.45;24.35;;;-1.20;76.00;;;;;;5055603;28;20029;-77
2020/12/23 00:54:44;;;;;;;43.90;21.77;;;-1.10;76.10;;;;;;5053730;28;20025;-76
2020/12/23 00:57:10;;;;;;;40.70;21.35;;;-1.10;76.00;;;;;;5054863;28;20174;-77
2020/12/23 00:59:36;;;;;;;36.85;19.90;;;-1.20;76.10;;;;;;5036521;28;20474;-77
2020/12/23 01:02:03;;;;;;;45.88;23.50;;;-1.20;76.30;;;;;;5034879;28;20475;-76
2020/12/23 01:04:29;;;;;;;40.88;20.88;;;-1.30;76.50;;;;;;5034814;28;20024;-77
2020/12/23 01:06:56;;;;;;;45.00;22.92;;;-1.30;76.60;;;;;;5033924;28;20048;-76
2020/12/23 01:09:21;;;;;;;45.72;21.90;;;-1.30;76.70;;;;;;5034764;28;20067;-77
2020/12/23 01:11:52;;;;;;;38.38;19.95;;;-1.30;77.00;;;;;;5033387;28;20120;-76
2020/12/23 01:14:18;;;;;;;61.30;26.27;;;-1.20;77.30;;;;;;5034729;28;20025;-76
2020/12/23 01:16:45;;;;;;;82.97;33.63;;;-1.20;77.60;;;;;;5034392;28;20180;-76
2020/12/23 01:19:12;;;;;;;78.10;32.85;;;-1.30;77.40;;;;;;5033186;28;20029;-76
2020/12/23 01:21:38;;;;;;;51.17;23.48;;;-1.20;77.40;;;;;;5034178;28;20132;-76
2020/12/23 01:24:04;;;;;;;47.88;22.08;;;-1.30;77.30;;;;;;5034475;28;20037;-76
2020/12/23 01:26:30;;;;;;;49.28;23.50;;;-1.30;77.30;;;;;;5034403;28;20079;-76
2020/12/23 01:28:55;;;;;;;50.47;22.52;;;-1.20;77.40;;;;;;5033080;28;20028;-76
2020/12/23 01:31:21;;;;;;;36.25;19.10;;;-1.20;77.30;;;;;;5034531;28;20029;-77
2020/12/23 01:33:47;;;;;;;41.88;21.52;;;-1.20;77.30;;;;;;5034115;28;20021;-76
2020/12/23 01:36:13;;;;;;;45.80;23.13;;;-1.30;77.50;;;;;;5032952;28;20452;-76
2020/12/23 01:38:38;;;;;;;47.60;23.65;;;-1.30;77.70;;;;;;5034131;28;20056;-76
2020/12/23 01:41:05;;;;;;;48.78;24.48;;;-1.30;77.50;;;;;;5033969;28;20048;-76
2020/12/23 01:43:32;;;;;;;45.55;21.98;;;-1.30;77.90;;;;;;5032788;28;20027;-76
2020/12/23 01:45:58;;;;;;;50.95;24.17;;;-1.30;77.90;;;;;;5032690;28;20379;-76
2020/12/23 01:48:32;;;;;;;52.92;24.38;;;-1.30;78.10;;;;;;5034042;28;20032;-76
2020/12/23 01:51:01;;;;;;;59.38;25.98;;;-1.30;78.00;;;;;;5034472;28;20021;-76
2020/12/23 01:53:27;;;;;;;74.05;31.63;;;-1.30;77.90;;;;;;5033966;28;20026;-76
2020/12/23 01:55:56;;;;;;;70.28;31.20;;;-1.30;77.90;;;;;;5034007;28;20029;-76
2020/12/23 01:58:22;;;;;;;66.65;29.35;;;-1.30;78.10;;;;;;5032497;28;20036;-76
2020/12/23 02:00:47;;;;;;;56.45;26.75;;;-1.30;78.10;;;;;;5032762;28;20029;-76
2020/12/23 02:03:13;;;;;;;53.42;24.50;;;-1.30;78.20;;;;;;5033835;28;20510;-76
2020/12/23 02:05:41;;;;;;;58.33;28.15;;;-1.30;78.10;;;;;;5033773;28;20093;-76
2020/12/23 02:08:07;;;;;;;57.33;26.17;;;-1.30;78.00;;;;;;5033696;28;20079;-76
2020/12/23 02:10:33;;;;;;;62.10;27.23;;;-1.30;78.10;;;;;;5033802;28;20022;-76
2020/12/23 02:12:59;;;;;;;69.85;30.02;;;-1.20;78.40;;;;;;5032516;28;20785;-77
2020/12/23 02:15:25;;;;;;;79.97;32.38;;;-1.20;77.70;;;;;;5033741;28;20034;-76
2020/12/23 02:17:50;;;;;;;76.28;33.17;;;-1.20;77.80;;;;;;5033442;28;20049;-76
2020/12/23 02:20:17;;;;;;;73.05;31.58;;;-1.20;77.80;;;;;;5032420;28;20056;-77
2020/12/23 02:22:44;;;;;;;70.90;29.77;;;-1.10;77.70;;;;;;5033333;28;20052;-76
2020/12/23 02:25:10;;;;;;;79.07;31.83;;;-1.20;77.30;;;;;;5032473;28;20371;-76
2020/12/23 02:27:37;;;;;;;90.57;35.55;;;-1.20;77.50;;;;;;5033548;28;20022;-77
2020/12/23 02:30:05;;;;;;;86.60;33.97;;;-1.10;77.60;;;;;;5033615;28;20018;-77
2020/12/23 02:32:31;;;;;;;79.60;31.63;;;-1.10;77.60;;;;;;5033508;28;20029;-76
2020/12/23 02:34:57;;;;;;;74.82;31.13;;;-1.20;77.70;;;;;;5032223;28;20029;-77
2020/12/23 02:37:23;;;;;;;66.00;29.15;;;-1.20;77.80;;;;;;5033497;28;20037;-76
2020/12/23 02:39:52;;;;;;;58.03;26.33;;;-1.10;77.90;;;;;;5033715;28;20032;-76
2020/12/23 02:42:19;;;;;;;55.95;24.63;;;-1.20;77.90;;;;;;5034014;28;20036;-76
2020/12/23 02:44:47;;;;;;;48.83;24.02;;;-1.20;78.10;;;;;;5033576;28;20022;-76
2020/12/23 02:47:14;;;;;;;49.58;22.92;;;-1.20;78.10;;;;;;5033392;28;20025;-77
2020/12/23 02:49:41;;;;;;;48.42;25.45;;;-1.20;77.90;;;;;;5032008;28;20075;-77
2020/12/23 02:52:07;;;;;;;57.58;26.70;;;-1.20;78.20;;;;;;5033166;28;20379;-77
2020/12/23 02:54:34;;;;;;;59.10;26.25;;;-1.30;77.90;;;;;;5033309;28;20033;-76
2020/12/23 02:57:00;;;;;;;56.95;24.45;;;-1.20;78.90;;;;;;5033274;28;20026;-77
2020/12/23 02:59:26;;;;;;;51.28;24.42;;;-1.20;78.00;;;;;;5032037;28;20491;-77
2020/12/23 03:01:52;;;;;;;48.78;23.73;;;-1.20;78.10;;;;;;5033114;28;20030;-76
2020/12/23 03:04:18;;;;;;;47.55;21.85;;;-1.20;78.50;;;;;;5033305;28;20097;-76
2020/12/23 03:06:44;;;;;;;53.63;23.63;;;-1.20;78.60;;;;;;5033519;28;20113;-77
2020/12/23 03:09:11;;;;;;;50.38;22.08;;;-1.10;78.40;;;;;;5033079;28;20025;-77
2020/12/23 03:11:38;;;;;;;51.85;22.65;;;-1.10;78.30;;;;;;5033507;28;20025;-78
2020/12/23 03:14:04;;;;;;;52.25;24.73;;;-1.10;78.30;;;;;;5031824;28;20032;-77
2020/12/23 03:16:30;;;;;;;48.88;24.63;;;-1.10;78.20;;;;;;5032873;28;20021;-77
2020/12/23 03:18:56;;;;;;;40.60;20.60;;;-1.10;78.30;;;;;;5051597;28;20025;-77
2020/12/23 03:21:22;;;;;;;42.15;21.10;;;-1.10;78.20;;;;;;5052621;28;20037;-77
2020/12/23 03:23:48;;;;;;;36.33;19.08;;;-1.00;78.30;;;;;;5051705;28;20029;-76
2020/12/23 03:26:14;;;;;;;44.95;22.20;;;-1.10;78.20;;;;;;5051802;28;20031;-76
2020/12/23 03:28:40;;;;;;;35.05;17.50;;;-1.10;78.20;;;;;;5052905;28;20021;-77
2020/12/23 03:31:06;;;;;;;30.25;16.13;;;-1.00;78.90;;;;;;5045673;28;20095;-77
2020/12/23 03:33:32;;;;;;;39.72;20.83;;;-1.10;78.10;;;;;;5036550;28;20125;-76
2020/12/23 03:35:58;;;;;;;36.58;20.05;;;-1.10;78.10;;;;;;5036548;28;20021;-76
2020/12/23 03:38:24;;;;;;;33.92;18.98;;;-1.10;78.30;;;;;;5035943;28;20080;-76
2020/12/23 03:40:50;;;;;;;29.85;17.08;;;-1.00;78.30;;;;;;5036734;28;20030;-76
2020/12/23 03:43:16;;;;;;;29.98;14.88;;;-1.00;78.40;;;;;;5036144;28;20100;-77
2020/12/23 03:45:42;;;;;;;27.23;15.63;;;-1.00;77.80;;;;;;5035987;28;20132;-77
2020/12/23 03:48:08;;;;;;;25.48;14.60;;;-1.00;77.90;;;;;;5036241;28;20028;-77
2020/12/23 03:50:34;;;;;;;33.25;17.00;;;-1.00;77.90;;;;;;5036405;28;20112;-76
2020/12/23 03:53:00;;;;;;;33.05;18.08;;;-0.90;77.70;;;;;;5034810;28;20025;-77
2020/12/23 03:55:26;;;;;;;30.40;16.25;;;-0.90;77.60;;;;;;5036523;28;20060;-78
2020/12/23 03:57:53;;;;;;;35.75;17.73;;;-0.90;77.50;;;;;;5043099;28;20032;-78
2020/12/23 04:00:19;;;;;;;34.08;18.38;;;-0.90;77.40;;;;;;5056032;28;20028;-78
2020/12/23 04:02:44;;;;;;;38.05;19.80;;;-0.90;77.60;;;;;;5055797;28;20067;-77
2020/12/23 04:05:10;;;;;;;32.67;18.60;;;-0.90;77.60;;;;;;5054666;28;20037;-77
2020/12/23 04:07:36;;;;;;;33.70;19.15;;;-0.90;77.70;;;;;;5055709;28;20110;-77
2020/12/23 04:10:04;;;;;;;33.05;18.60;;;-0.90;78.00;;;;;;5055612;28;20020;-77
2020/12/23 04:12:30;;;;;;;36.70;19.42;;;-0.90;77.90;;;;;;5053714;28;20060;-77
2020/12/23 04:14:56;;;;;;;30.20;17.10;;;-1.00;77.50;;;;;;5055781;28;20106;-79
2020/12/23 04:17:21;;;;;;;31.73;17.15;;;-1.00;77.90;;;;;;5054355;28;20025;-79
2020/12/23 04:19:47;;;;;;;30.02;16.67;;;-1.00;77.90;;;;;;5055839;28;20122;-79
2020/12/23 04:22:13;;;;;;;27.25;16.48;;;-1.00;78.00;;;;;;5055183;28;20077;-78
2020/12/23 05:29:48;;;;;;;40.72;20.15;;;-1.50;80.60;;;;;;5111429;27;20462;-78
2020/12/23 05:32:14;;;;;;;37.78;19.08;;;-1.50;80.80;;;;;;5109845;28;20027;-77
2020/12/23 05:34:42;;;;;;;35.65;18.60;;;-1.50;80.50;;;;;;5111168;28;20085;-78
2020/12/23 05:37:08;;;;;;;37.85;20.13;;;-1.40;80.70;;;;;;5111333;28;20037;-78
2020/12/23 05:39:34;;;;;;;43.47;22.45;;;-1.40;80.60;;;;;;5111158;28;20103;-75
2020/12/23 05:42:01;;;;;;;47.95;26.77;;;-1.30;80.90;;;;;;5111457;28;20530;-77
2020/12/23 05:44:29;;;;;;;47.47;25.33;;;-1.30;80.90;;;;;;5110954;28;20056;-77
2020/12/23 05:46:55;;;;;;;39.85;22.50;;;-1.20;80.50;;;;;;5111106;28;20024;-78
2020/12/23 05:49:23;;;;;;;40.22;21.27;;;-1.20;80.30;;;;;;5110736;28;20153;-76
2020/12/23 05:51:50;;;;;;;42.20;20.80;;;-1.20;79.30;;;;;;5110855;28;20016;-78
2020/12/23 05:54:19;;;;;;;54.00;26.17;;;-1.10;79.80;;;;;;5110028;28;20020;-77
2020/12/23 05:56:45;;;;;;;43.08;23.35;;;-1.10;79.60;;;;;;5109865;28;20024;-78
2020/12/23 05:59:11;;;;;;;49.03;26.48;;;-1.10;79.70;;;;;;5111004;28;20031;-78
2020/12/23 06:01:40;;;;;;;51.50;25.95;;;-1.10;79.70;;;;;;5111087;28;20027;-79
2020/12/23 06:04:15;;;;;;;44.92;23.17;;;-1.00;79.60;;;;;;5111221;28;20095;-78
2020/12/23 06:06:44;;;;;;;47.08;24.00;;;-0.90;79.10;;;;;;5110844;28;20019;-78
2020/12/23 06:09:11;;;;;;;42.47;22.63;;;-1.00;78.90;;;;;;5110781;28;20028;-80
2020/12/23 06:11:44;;;;;;;40.90;22.95;;;-0.90;79.00;;;;;;5111182;28;20016;-78
2020/12/23 06:14:15;;;;;;;34.95;19.65;;;-0.90;78.90;;;;;;5110720;28;20016;-75
2020/12/23 06:16:43;;;;;;;;;;;-0.80;78.50;;;;;;5111433;28;20012;-76
2020/12/23 06:19:11;;;;;;;40.03;20.25;;;-0.90;78.00;;;;;;5110757;28;19954;-75
2020/12/23 06:21:38;;;;;;;38.80;21.75;;;-0.80;78.50;;;;;;5110785;28;20028;-76
2020/12/23 06:24:18;;;;;;;42.65;23.70;;;-0.80;78.30;;;;;;5110739;28;20048;-75
2020/12/23 06:26:47;;;;;;;44.55;23.95;;;-0.70;78.10;;;;;;5109326;28;20077;-76
2020/12/23 06:29:25;;;;;;;48.53;27.92;;;-0.70;78.50;;;;;;5110098;28;20055;-75
2020/12/23 06:31:56;;;;;;;57.20;29.80;;;-0.80;77.70;;;;;;5110784;28;20024;-75
2020/12/23 06:34:27;;;;;;;81.90;34.85;;;-0.80;78.10;;;;;;5111029;28;20444;-75
2020/12/23 06:36:54;;;;;;;;;;;-0.70;78.20;;;;;;5110790;28;20016;-75
2020/12/23 06:39:23;;;;;;;85.10;35.22;;;-0.70;77.50;;;;;;5106840;28;19904;-75
2020/12/23 06:41:54;;;;;;;90.03;35.28;;;-0.70;77.80;;;;;;5095298;28;20393;-75
2020/12/23 06:44:20;;;;;;;83.00;32.55;;;-0.60;77.90;;;;;;5096890;28;20024;-75
2020/12/23 06:46:58;;;;;;;55.75;28.33;;;-0.50;78.00;;;;;;5097163;28;20027;-75
2020/12/23 06:49:43;;;;;;;53.30;25.90;;;-0.50;77.80;;;;;;5095115;28;20123;-75
2020/12/23 06:52:21;;;;;;;49.35;25.52;;;-0.50;77.40;;;;;;5096469;28;20074;-75
2020/12/23 06:55:05;;;;;;;45.42;25.25;;;-0.40;77.40;;;;;;5096367;28;20027;-75
2020/12/23 06:57:36;;;;;;;43.47;23.95;;;-0.40;77.00;;;;;;5096333;28;20066;-75
2020/12/23 07:00:32;;;;;;;41.88;23.60;;;-0.40;77.10;;;;;;5094797;28;20136;-75
2020/12/23 07:03:04;;;;;;;60.22;28.92;;;-0.40;77.20;;;;;;5096195;28;20066;-75
2020/12/23 07:05:36;;;;;;;93.28;39.60;;;-0.30;77.30;;;;;;5096089;28;20023;-75
2020/12/23 07:08:08;;;;;;;115.00;48.10;;;-0.30;77.10;;;;;;5095995;28;20028;-75
2020/12/23 07:10:43;;;;;;;145.88;58.95;;;-0.30;77.30;;;;;;5096019;28;20046;-75
2020/12/23 07:13:15;;;;;;;171.70;65.03;;;-0.30;76.70;;;;;;5096261;28;20027;-75
2020/12/23 07:15:43;;;;;;;142.48;53.22;;;-0.30;76.90;;;;;;5096291;28;20099;-76
2020/12/23 07:18:08;;;;;;;133.27;52.85;;;-0.30;76.70;;;;;;5095929;28;20554;-75
2020/12/23 07:20:36;;;;;;;96.32;41.33;;;-0.30;76.60;;;;;;5095910;28;20024;-75
2020/12/23 07:23:10;;;;;;;89.95;38.55;;;-0.30;76.90;;;;;;5094570;28;20023;-75
2020/12/23 07:25:47;;;;;;;78.65;35.80;;;-0.40;76.70;;;;;;5095922;28;20543;-75
2020/12/23 07:28:16;;;;;;;73.13;33.95;;;-0.30;76.60;;;;;;5095424;28;20186;-76
2020/12/23 07:30:42;;;;;;;71.28;33.17;;;-0.30;76.80;;;;;;5094697;28;20031;-76
2020/12/23 07:33:21;;;;;;;63.45;30.15;;;-0.40;76.60;;;;;;5095888;28;20024;-75
2020/12/23 07:35:52;;;;;;;71.53;33.97;;;-0.30;76.90;;;;;;5095542;28;20099;-75
2020/12/23 07:38:19;;;;;;;77.35;35.28;;;-0.20;77.00;;;;;;5095728;28;20031;-75
2020/12/23 07:40:45;;;;;;;84.70;39.35;;;-0.20;76.70;;;;;;5095440;28;20476;-75
2020/12/23 07:43:13;;;;;;;86.75;37.45;;;-0.30;76.60;;;;;;5095492;28;20052;-75
2020/12/23 07:45:39;;;;;;;81.20;38.40;;;-0.30;76.80;;;;;;5096011;28;20035;-75
2020/12/23 07:48:07;;;;;;;77.35;39.05;;;-0.30;76.40;;;;;;5094022;28;20034;-75
2020/12/23 07:50:45;;;;;;;70.05;34.83;;;-0.40;76.40;;;;;;5094986;28;20023;-75
2020/12/23 07:53:18;;;;;;;66.90;31.48;;;-0.40;76.50;;;;;;5094938;28;20051;-75
2020/12/23 07:55:48;;;;;;;59.70;29.25;;;-0.40;76.90;;;;;;5095682;28;20462;-75
2020/12/23 07:58:15;;;;;;;78.82;38.22;;;-0.30;77.10;;;;;;5095002;28;20032;-75
2020/12/23 08:00:44;;;;;;;67.88;33.25;;;-0.40;76.70;;;;;;5095008;28;20046;-76
2020/12/23 08:03:11;;;;;;;75.60;35.83;;;-0.30;77.50;;;;;;5094710;28;20074;-75
2020/12/23 08:05:37;;;;;;;100.03;42.03;;;-0.30;76.90;;;;;;5095102;28;20017;-75
2020/12/23 08:08:03;;;;;;;93.60;39.13;;;-0.30;76.80;;;;;;5094821;28;20046;-75
2020/12/23 08:10:29;;;;;;;95.60;40.40;;;-0.30;77.00;;;;;;5093642;28;20024;-75
2020/12/23 08:12:57;;;;;;;82.72;36.15;;;-0.20;77.10;;;;;;5094927;28;20384;-75
2020/12/23 08:15:23;;;;;;;84.78;36.17;;;-0.20;76.80;;;;;;5094809;28;20433;-75
2020/12/23 08:18:11;;;;;;;88.55;39.70;;;-0.10;76.70;;;;;;5094805;28;20389;-76
2020/12/23 08:20:37;;;;;;;116.43;48.55;;;-0.10;75.80;;;;;;5093452;28;20021;-76
2020/12/23 08:23:03;;;;;;;151.88;60.05;;;0.00;76.40;;;;;;5094849;28;20035;-75
2020/12/23 08:25:30;;;;;;;148.60;58.38;;;0.00;75.90;;;;;;5093012;28;20032;-75
2020/12/23 08:27:58;;;;;;;159.38;59.25;;;0.00;76.30;;;;;;5094631;28;20052;-75
2020/12/23 08:30:26;;;;;;;133.32;50.47;;;0.00;76.20;;;;;;5093352;28;20389;-75
2020/12/23 08:33:00;;;;;;;117.82;47.63;;;0.20;76.30;;;;;;5094526;28;20027;-75
2020/12/23 08:35:34;;;;;;;108.18;45.03;;;0.20;75.80;;;;;;5094406;28;20020;-75
2020/12/23 08:38:00;;;;;;;110.93;48.15;;;0.30;75.90;;;;;;5094643;28;20385;-75
2020/12/23 08:40:25;;;;;;;113.20;46.97;;;0.40;75.80;;;;;;5094352;28;20020;-75
2020/12/23 08:42:56;;;;;;;132.30;53.80;;;0.40;75.20;;;;;;5094347;28;20055;-75
2020/12/23 08:45:31;;;;;;;164.55;64.18;;;0.40;75.00;;;;;;5094873;28;20016;-75
2020/12/23 08:47:58;;;;;;;143.77;56.70;;;0.40;74.80;;;;;;5094204;28;20024;-75
2020/12/23 08:50:27;;;;;;;144.35;60.70;;;0.50;75.50;;;;;;5094338;28;20027;-75
2020/12/23 08:52:54;;;;;;;115.18;50.80;;;0.40;74.90;;;;;;5094107;28;20095;-75
2020/12/23 08:55:23;;;;;;;130.10;52.95;;;0.40;75.20;;;;;;5094531;28;20019;-75
2020/12/23 08:57:50;;;;;;;117.07;50.55;;;0.40;75.00;;;;;;5094007;28;20085;-75
2020/12/23 09:00:20;;;;;;;115.70;51.30;;;0.50;75.10;;;;;;5093904;28;20028;-75
2020/12/23 09:02:48;;;;;;;91.63;41.65;;;0.50;74.90;;;;;;5093901;28;20032;-75
2020/12/23 09:05:26;;;;;;;93.47;39.25;;;0.50;74.60;;;;;;5093921;28;20034;-75
2020/12/23 09:08:05;;;;;;;97.13;41.33;;;0.50;74.80;;;;;;5094229;28;20089;-75
2020/12/23 09:10:31;;;;;;;85.45;36.78;;;0.40;75.00;;;;;;5092625;28;20432;-75
2020/12/23 09:13:33;;;;;;;75.85;39.00;;;0.50;75.30;;;;;;5092668;28;20028;-76
2020/12/23 09:15:59;;;;;;;89.63;43.20;;;0.50;74.80;;;;;;5093853;28;20023;-75
2020/12/23 09:18:25;;;;;;;74.30;34.08;;;0.50;74.90;;;;;;5094043;28;20035;-75
2020/12/23 09:21:02;;;;;;;87.45;39.70;;;0.50;74.90;;;;;;5094092;28;20484;-75
2020/12/23 09:23:28;;;;;;;73.82;34.25;;;0.60;75.00;;;;;;5093752;28;20028;-75
2020/12/23 09:25:55;;;;;;;90.07;39.08;;;0.60;75.10;;;;;;5093960;28;20024;-75
2020/12/23 09:28:23;;;;;;;119.30;47.22;;;0.60;74.70;;;;;;5093101;28;20052;-75
2020/12/23 09:30:53;;;;;;;122.97;52.60;;;0.60;75.10;;;;;;5093915;28;20399;-75
2020/12/23 09:33:20;;;;;;;106.45;46.30;;;0.60;75.30;;;;;;5093894;28;20362;-75
2020/12/23 09:35:48;;;;;;;90.57;39.50;;;0.60;74.70;;;;;;5093876;28;20100;-75
2020/12/23 09:38:24;;;;;;;74.82;35.03;;;0.60;74.80;;;;;;5094263;28;20020;-75
2020/12/23 09:40:49;;;;;;;81.78;37.25;;;0.60;74.50;;;;;;5093549;28;20024;-75
2020/12/23 09:43:18;;;;;;;98.93;40.92;;;0.60;74.60;;;;;;5093580;28;20020;-74
2020/12/23 09:45:45;;;;;;;79.07;37.47;;;0.60;75.10;;;;;;5093964;28;20028;-74
2020/12/23 09:48:11;;;;;;;101.07;45.65;;;0.70;75.30;;;;;;5093985;28;20081;-75
2020/12/23 09:50:37;;;;;;;98.35;41.85;;;0.70;74.50;;;;;;5093950;28;20103;-74
2020/12/23 09:53:03;;;;;;;95.88;45.45;;;0.70;74.90;;;;;;5093425;28;20074;-74
2020/12/23 09:55:29;;;;;;;97.55;45.03;;;0.80;74.90;;;;;;5093765;28;20020;-75
2020/12/23 09:57:54;;;;;;;92.90;43.78;;;0.90;74.50;;;;;;5093571;28;20052;-75
2020/12/23 10:00:20;;;;;;;90.10;41.58;;;0.90;74.70;;;;;;5093466;28;20024;-74
2020/12/23 10:02:46;;;;;;;107.07;46.67;;;1.00;74.60;;;;;;5092039;28;20827;-74
2020/12/23 10:05:12;;;;;;;158.05;61.17;;;1.10;74.50;;;;;;5093405;28;20074;-75
2020/12/23 10:07:38;;;;;;;139.05;57.28;;;1.10;74.10;;;;;;5093399;28;20032;-75
2020/12/23 10:10:04;;;;;;;74.25;35.03;;;1.10;74.00;;;;;;5093592;28;20103;-79
2020/12/23 10:12:30;;;;;;;62.75;32.00;;;1.10;73.60;;;;;;5092280;28;20020;-75
2020/12/23 10:14:56;;;;;;;69.25;32.17;;;1.10;73.80;;;;;;5094390;28;20020;-75
2020/12/23 10:17:22;;;;;;;67.03;32.35;;;1.00;73.80;;;;;;5096987;28;20052;-74
2020/12/23 10:19:47;;;;;;;53.10;28.05;;;1.00;74.20;;;;;;5096868;28;20024;-75
2020/12/23 10:22:13;;;;;;;50.63;25.95;;;1.10;73.90;;;;;;5096982;28;20024;-74
2020/12/23 10:24:39;;;;;;;46.60;25.13;;;1.10;73.90;;;;;;5096987;28;20172;-74
2020/12/23 10:27:05;;;;;;;44.50;24.52;;;1.10;73.80;;;;;;5096936;28;20055;-75
2020/12/23 10:29:31;;;;;;;49.67;24.85;;;1.10;73.90;;;;;;5096719;28;20400;-75
2020/12/23 10:31:57;;;;;;;45.97;24.20;;;1.10;73.70;;;;;;5096881;28;20103;-75
2020/12/23 10:34:23;;;;;;;47.10;25.42;;;1.10;73.80;;;;;;5097381;28;20099;-75
2020/12/23 10:36:49;;;;;;;43.05;23.70;;;1.20;74.10;;;;;;5096614;28;20377;-75
2020/12/23 10:39:17;;;;;;;63.13;35.47;;;1.20;73.90;;;;;;5096434;28;20032;-75
2020/12/23 10:41:46;;;;;;;57.13;29.00;;;1.20;73.60;;;;;;5096506;28;20504;-74
2020/12/23 10:44:12;;;;;;;59.53;31.42;;;1.20;73.40;;;;;;5096496;28;20031;-75
2020/12/23 10:46:38;;;;;;;54.45;29.30;;;1.20;73.70;;;;;;5096454;28;20028;-74
2020/12/23 10:49:05;;;;;;;55.47;27.55;;;1.30;73.90;;;;;;5096387;28;20031;-74
2020/12/23 10:51:31;;;;;;;47.22;24.80;;;1.30;73.50;;;;;;5096504;28;20028;-75
2020/12/23 10:53:56;;;;;;;52.03;26.45;;;1.20;73.60;;;;;;5096489;28;20081;-75
2020/12/23 10:56:22;;;;;;;54.95;29.05;;;1.30;73.60;;;;;;5096604;28;20059;-75
2020/12/23 10:58:48;;;;;;;55.50;28.77;;;1.30;73.80;;;;;;5096466;28;20028;-75
2020/12/23 11:01:20;;;;;;;61.95;30.83;;;1.30;73.80;;;;;;5096344;28;20027;-75
2020/12/23 11:03:46;;;;;;;62.78;29.13;;;1.30;73.40;;;;;;5096180;28;20028;-75
2020/12/23 11:06:14;;;;;;;60.17;31.48;;;1.30;73.60;;;;;;5096190;28;20094;-75
2020/12/23 11:08:40;;;;;;;60.78;32.20;;;1.30;73.60;;;;;;5096074;28;20031;-75
2020/12/23 11:11:06;;;;;;;49.75;26.80;;;1.30;73.00;;;;;;5095904;28;20529;-75
2020/12/23 11:13:32;;;;;;;53.63;27.95;;;1.20;73.40;;;;;;5095291;28;20095;-75
2020/12/23 11:15:57;;;;;;;77.55;34.22;;;1.20;73.60;;;;;;5095764;28;20052;-75
2020/12/23 11:18:23;;;;;;;89.55;38.35;;;1.20;73.80;;;;;;5096174;28;20101;-75
2020/12/23 11:20:49;;;;;;;83.20;38.50;;;1.20;73.70;;;;;;5095769;28;20748;-75
2020/12/23 11:23:25;;;;;;;100.95;44.65;;;1.10;73.60;;;;;;5095761;28;20442;-75
2020/12/23 11:25:51;;;;;;;98.60;45.92;;;1.10;73.70;;;;;;5095673;28;20102;-75
2020/12/23 11:28:17;;;;;;;106.88;46.53;;;1.00;74.00;;;;;;5095448;28;20124;-75
2020/12/23 11:30:43;;;;;;;83.40;40.13;;;0.90;74.30;;;;;;5095669;28;20027;-75
2020/12/23 11:33:08;;;;;;;89.03;41.25;;;0.90;74.40;;;;;;5095750;28;20103;-77
2020/12/23 11:35:34;;;;;;;71.45;33.53;;;0.90;74.40;;;;;;5094325;28;20351;-75
2020/12/23 11:38:00;;;;;;;65.00;33.30;;;0.90;74.50;;;;;;5095587;28;20024;-75
2020/12/23 11:40:25;;;;;;;66.40;32.72;;;0.90;74.30;;;;;;5095505;28;20141;-75
2020/12/23 11:42:51;;;;;;;68.10;34.47;;;0.90;74.60;;;;;;5095373;28;20038;-75
2020/12/23 11:45:17;;;;;;;55.42;27.80;;;1.00;74.30;;;;;;5095779;28;20032;-75
2020/12/23 11:47:43;;;;;;;59.60;31.77;;;1.00;74.50;;;;;;5095253;28;20042;-75
2020/12/23 11:50:09;;;;;;;59.50;29.98;;;0.90;74.20;;;;;;5095545;28;20031;-75
2020/12/23 11:52:34;;;;;;;55.03;27.88;;;0.90;74.30;;;;;;5095366;28;20020;-75
2020/12/23 11:55:00;;;;;;;54.03;28.85;;;1.00;74.70;;;;;;5095669;28;20043;-75
2020/12/23 11:57:26;;;;;;;62.10;29.45;;;0.80;74.30;;;;;;5095200;28;20028;-75
2020/12/23 11:59:51;;;;;;;56.38;28.27;;;0.80;74.50;;;;;;5095472;28;20473;-75
2020/12/23 12:02:17;;;;;;;60.35;30.60;;;0.80;74.50;;;;;;5095229;28;20153;-75
2020/12/23 12:04:43;;;;;;;77.05;36.33;;;0.80;74.60;;;;;;5095097;28;20470;-75
2020/12/23 12:07:09;;;;;;;82.55;36.00;;;0.70;74.70;;;;;;5095047;28;20028;-76
2020/12/23 12:09:34;;;;;;;68.20;32.88;;;0.70;74.90;;;;;;5094886;28;20466;-75
2020/12/23 12:12:00;;;;;;;66.68;32.17;;;0.60;75.10;;;;;;5094931;28;20028;-75
2020/12/23 12:14:26;;;;;;;64.00;31.60;;;0.60;75.20;;;;;;5095178;28;20097;-76
2020/12/23 12:16:51;;;;;;;63.05;29.08;;;0.70;75.20;;;;;;5095130;28;20020;-76
2020/12/23 12:19:17;;;;;;;58.40;27.63;;;0.60;75.10;;;;;;5095066;28;20027;-76
2020/12/23 12:21:43;;;;;;;62.33;29.38;;;0.70;75.10;;;;;;5094787;28;20056;-75
2020/12/23 12:24:09;;;;;;;84.45;36.88;;;0.70;75.10;;;;;;5094777;28;20028;-75
2020/12/23 12:26:35;;;;;;;81.75;37.25;;;0.70;75.30;;;;;;5094767;28;20055;-75
2020/12/23 12:29:01;;;;;;;75.18;34.67;;;0.70;75.30;;;;;;5094415;28;20044;-75
2020/12/23 12:31:28;;;;;;;86.63;37.67;;;0.70;75.30;;;;;;5094704;28;20045;-75
2020/12/23 12:33:54;;;;;;;78.25;36.97;;;0.70;75.30;;;;;;5094528;28;20024;-76
2020/12/23 12:36:21;;;;;;;101.28;44.78;;;0.70;75.40;;;;;;5093145;28;20411;-75
2020/12/23 12:38:47;;;;;;;83.50;38.30;;;0.60;75.20;;;;;;5094033;28;20024;-75
2020/12/23 12:41:13;;;;;;;74.28;35.08;;;0.50;75.60;;;;;;5094521;28;20024;-75
2020/12/23 12:43:39;;;;;;;79.20;35.88;;;0.60;75.60;;;;;;5094132;28;20028;-76
2020/12/23 12:46:08;;;;;;;87.80;39.72;;;0.60;75.50;;;;;;5094650;28;20038;-75
2020/12/23 12:48:34;;;;;;;94.05;41.30;;;0.60;75.50;;;;;;5094153;28;20028;-75
2020/12/23 12:51:00;;;;;;;99.43;42.95;;;0.60;75.60;;;;;;5094016;28;20026;-75
2020/12/23 12:53:26;;;;;;;109.68;45.70;;;0.50;75.80;;;;;;5092908;28;20027;-75
2020/12/23 12:55:53;;;;;;;88.63;40.22;;;0.50;76.40;;;;;;5094099;28;20024;-75
2020/12/23 12:58:19;;;;;;;101.00;42.80;;;0.50;76.30;;;;;;5094054;28;20519;-75
2020/12/23 13:00:45;;;;;;;144.98;59.28;;;0.40;76.30;;;;;;5093952;28;20036;-74
2020/12/23 13:03:10;;;;;;;145.77;59.22;;;0.40;76.60;;;;;;5094094;28;20051;-76
2020/12/23 13:05:36;;;;;;;137.38;57.47;;;0.40;76.60;;;;;;5092702;28;20474;-75
2020/12/23 13:08:02;;;;;;;110.28;47.75;;;0.40;76.80;;;;;;5093810;28;20024;-75
2020/12/23 13:10:28;;;;;;;97.15;40.72;;;0.50;76.70;;;;;;5093949;28;20190;-76
2020/12/23 13:12:54;;;;;;;75.20;35.65;;;0.40;76.60;;;;;;5093821;28;20362;-75
2020/12/23 13:15:19;;;;;;;70.50;31.52;;;0.40;76.80;;;;;;5093780;28;20020;-76
2020/12/23 13:17:45;;;;;;;64.32;28.73;;;0.40;76.90;;;;;;5093512;28;20031;-75
2020/12/23 13:20:11;;;;;;;50.58;26.33;;;0.40;76.90;;;;;;5094017;28;20023;-75
2020/12/23 13:22:36;;;;;;;45.97;24.73;;;0.40;76.90;;;;;;5093801;28;20405;-75
2020/12/23 13:25:03;;;;;;;45.60;23.30;;;0.40;76.90;;;;;;5093656;28;20047;-78
2020/12/23 13:27:28;;;;;;;56.13;27.52;;;0.40;77.10;;;;;;5093764;28;20056;-75
2020/12/23 13:29:54;;;;;;;59.90;27.75;;;0.30;77.20;;;;;;5093346;28;20551;-75
2020/12/23 13:32:20;;;;;;;45.88;24.02;;;0.30;77.60;;;;;;5093807;28;20027;-75
2020/12/23 13:34:45;;;;;;;73.30;32.55;;;0.30;77.30;;;;;;5093962;28;20020;-75
2020/12/23 13:37:11;;;;;;;81.70;37.67;;;0.40;77.60;;;;;;5093391;28;20100;-75